Time;durP1;ratioP1;P1;durP2;ratioP2;P2;SDS_P1;SDS_P2;PMS_P1;PMS_P2;Temp;Humidity;BMP_temperature;BMP_pressure;BME280_temperature;BME280_humidity;BME280_pressure;Samples;Min_cycle;Max_cycle;Signal;HPM_P1;HPM_P2
2023/02/16 00:00:51;;;;;;;141.77;68.50;;;;;;;;;;4396714;32;318704;-90
2023/02/16 00:03:20;;;;;;;147.87;71.63;;;;;;;;;;4407393;32;318534;-89
2023/02/16 00:05:48;;;;;;;128.50;65.90;;;;;;;;;;4396966;32;319443;-91
2023/02/16 00:08:15;;;;;;;122.45;72.55;;;;;;;;;;4406468;32;341127;-90
2023/02/16 00:13:43;;;;;;;97.53;55.87;;;;;;;;;;4398781;32;318635;-89
2023/02/16 00:13:46;;;;;;;88.43;50.47;;;;;;;;;;4402389;32;317941;-88
2023/02/16 00:16:15;;;;;;;97.60;57.17;;;;;;;;;;4414480;32;317537;-89
2023/02/16 00:18:42;;;;;;;98.37;59.50;;;;;;;;;;4406793;32;317660;-87
2023/02/16 00:21:09;;;;;;;101.53;64.27;;;;;;;;;;4418999;32;318009;-88
2023/02/16 00:23:36;;;;;;;93.93;58.43;;;;;;;;;;4406403;32;346219;-89
2023/02/16 00:26:05;;;;;;;73.10;46.50;;;;;;;;;;4416939;32;317221;-88
2023/02/16 00:28:32;;;;;;;64.90;41.07;;;;;;;;;;4402016;32;358618;-90
2023/02/16 00:30:59;;;;;;;76.23;47.03;;;;;;;;;;4410352;32;317493;-89
2023/02/16 00:33:26;;;;;;;74.20;47.10;;;;;;;;;;4408279;32;318601;-89
2023/02/16 00:35:53;;;;;;;92.63;57.10;;;;;;;;;;4394687;32;417141;-90
2023/02/16 00:38:20;;;;;;;98.60;57.33;;;;;;;;;;4407186;32;317626;-89
2023/02/16 00:40:47;;;;;;;88.63;53.97;;;;;;;;;;4397405;32;317766;-89
2023/02/16 00:43:25;;;;;;;80.90;49.20;;;;;;;;;;4408793;32;318487;-90
2023/02/16 00:45:52;;;;;;;76.13;49.93;;;;;;;;;;4409226;32;317639;-90
2023/02/16 00:48:19;;;;;;;86.03;49.60;;;;;;;;;;4420004;32;316400;-90
2023/02/16 00:50:46;;;;;;;80.07;47.83;;;;;;;;;;4408868;32;317296;-89
2023/02/16 00:53:13;;;;;;;82.83;49.70;;;;;;;;;;4415735;32;316237;-89
2023/02/16 00:55:42;;;;;;;81.93;50.33;;;;;;;;;;4407245;32;351802;-89
2023/02/16 00:58:19;;;;;;;80.00;49.50;;;;;;;;;;4418786;32;316670;-89
2023/02/16 01:00:51;;;;;;;79.23;48.50;;;;;;;;;;4404555;32;318158;-89
2023/02/16 01:03:20;;;;;;;76.73;50.33;;;;;;;;;;4411829;32;317834;-89
2023/02/16 01:05:47;;;;;;;82.97;49.57;;;;;;;;;;4399255;32;331855;-88
2023/02/16 01:11:10;;;;;;;75.83;49.13;;;;;;;;;;4394314;32;387882;-88
2023/02/16 01:13:43;;;;;;;77.47;47.70;;;;;;;;;;4394897;32;349767;-88
2023/02/16 01:16:16;;;;;;;77.10;47.43;;;;;;;;;;4406764;32;317436;-88
2023/02/16 01:18:43;;;;;;;74.90;46.87;;;;;;;;;;4395575;32;318036;-88
2023/02/16 01:21:10;;;;;;;75.80;48.43;;;;;;;;;;4406437;32;318520;-89
2023/02/16 01:23:37;;;;;;;100.93;53.40;;;;;;;;;;4394674;32;317759;-89
2023/02/16 01:26:05;;;;;;;89.20;50.50;;;;;;;;;;4404892;32;318683;-89
2023/02/16 01:28:35;;;;;;;97.47;49.97;;;;;;;;;;4396033;32;317637;-89
2023/02/16 01:31:02;;;;;;;84.80;49.27;;;;;;;;;;4404417;32;318079;-88
2023/02/16 01:33:31;;;;;;;102.23;52.80;;;;;;;;;;4396481;32;317824;-88
2023/02/16 01:35:58;;;;;;;95.30;50.73;;;;;;;;;;4404932;32;348972;-89
2023/02/16 01:38:27;;;;;;;77.53;44.13;;;;;;;;;;4404265;32;332751;-91
2023/02/16 01:41:05;;;;;;;70.67;43.37;;;;;;;;;;4392911;32;414165;-88
2023/02/16 01:43:44;;;;;;;71.67;43.90;;;;;;;;;;4394930;32;318717;-89
2023/02/16 01:46:16;;;;;;;74.37;44.73;;;;;;;;;;4405533;32;318078;-89
2023/02/16 01:48:45;;;;;;;84.50;51.05;;;;;;;;;;4405038;32;318029;-88
2023/02/16 01:51:19;;;;;;;73.70;47.93;;;;;;;;;;4418881;32;316259;-89
2023/02/16 01:53:50;;;;;;;78.93;44.20;;;;;;;;;;4408230;32;347460;-88
2023/02/16 01:56:28;;;;;;;68.47;41.70;;;;;;;;;;4420094;32;317447;-90
2023/02/16 01:58:58;;;;;;;66.80;39.63;;;;;;;;;;4406015;32;417078;-89
2023/02/16 02:01:50;;;;;;;54.33;36.43;;;;;;;;;;4414688;32;317610;-89
2023/02/16 02:07:15;;;;;;;80.60;46.87;;;;;;;;;;4403725;32;388992;-88
2023/02/16 02:09:47;;;;;;;83.93;46.40;;;;;;;;;;4405286;32;318908;-90
2023/02/16 02:12:21;;;;;;;78.30;45.40;;;;;;;;;;4408007;32;317660;-89
2023/02/16 02:14:48;;;;;;;85.20;51.97;;;;;;;;;;4396351;32;317844;-89
2023/02/16 02:17:19;;;;;;;73.10;47.37;;;;;;;;;;4405682;32;317781;-89
2023/02/16 02:20:00;;;;;;;80.63;46.63;;;;;;;;;;4394054;32;317693;-88
2023/02/16 02:26:05;;;;;;;81.93;51.73;;;;;;;;;;4391531;32;388615;-90
2023/02/16 02:28:42;;;;;;;90.93;56.87;;;;;;;;;;4393672;32;317747;-88
2023/02/16 02:31:17;;;;;;;79.67;54.13;;;;;;;;;;4403447;32;317660;-88
2023/02/16 02:33:54;;;;;;;90.07;64.07;;;;;;;;;;4394828;32;317628;-89
2023/02/16 02:36:30;;;;;;;93.97;65.43;;;;;;;;;;4404441;32;318485;-89
2023/02/16 02:39:05;;;;;;;86.33;61.00;;;;;;;;;;4392516;32;418481;-89
2023/02/16 02:44:25;;;;;;;147.33;93.07;;;;;;;;;;4404230;32;317517;-88
2023/02/16 02:46:53;;;;;;;106.77;66.97;;;;;;;;;;4394666;32;318677;-90
2023/02/16 02:49:19;;;;;;;73.07;47.63;;;;;;;;;;4402968;32;355824;-89
2023/02/16 02:51:47;;;;;;;66.30;42.23;;;;;;;;;;4393981;32;318042;-90
2023/02/16 03:02:47;;;;;;;85.23;49.53;;;;;;;;;;4394690;32;318302;-89
2023/02/16 03:05:16;;;;;;;77.23;48.93;;;;;;;;;;4403073;32;343586;-90
2023/02/16 03:07:47;;;;;;;65.90;43.80;;;;;;;;;;4398225;32;317600;-89
2023/02/16 03:13:02;;;;;;;77.50;49.20;;;;;;;;;;4400097;32;388749;-89
2023/02/16 03:15:31;;;;;;;72.03;46.53;;;;;;;;;;4395179;32;318370;-89
2023/02/16 03:29:20;;;;;;;78.30;47.23;;;;;;;;;;4392964;32;389217;-89
2023/02/16 03:31:50;;;;;;;72.40;42.10;;;;;;;;;;4394145;32;317762;-90
2023/02/16 03:34:19;;;;;;;78.47;44.80;;;;;;;;;;4404028;32;317379;-90
2023/02/16 03:36:52;;;;;;;85.33;47.70;;;;;;;;;;4393798;32;318441;-90
2023/02/16 03:39:20;;;;;;;92.23;47.90;;;;;;;;;;4406138;32;317793;-89
2023/02/16 03:41:50;;;;;;;91.63;50.47;;;;;;;;;;4401442;32;318219;-89
2023/02/16 03:44:17;;;;;;;89.77;52.20;;;;;;;;;;4408701;32;317360;-89
2023/02/16 03:46:45;;;;;;;106.13;61.37;;;;;;;;;;4402104;32;317594;-90
2023/02/16 03:49:13;;;;;;;116.87;60.63;;;;;;;;;;4415945;32;318401;-90
2023/02/16 03:51:40;;;;;;;119.90;65.10;;;;;;;;;;4408007;32;319115;-88
2023/02/16 03:54:06;;;;;;;120.27;68.10;;;;;;;;;;4417855;32;318199;-88
2023/02/16 03:56:33;;;;;;;123.03;69.00;;;;;;;;;;4408366;32;317278;-88
2023/02/16 03:59:00;;;;;;;127.73;73.63;;;;;;;;;;4421210;32;318158;-89
2023/02/16 04:01:30;;;;;;;151.80;84.47;;;;;;;;;;4418874;32;317918;-90
2023/02/16 04:03:57;;;;;;;157.90;88.53;;;;;;;;;;4407303;32;414914;-89
2023/02/16 04:06:26;;;;;;;154.70;85.40;;;;;;;;;;4416392;32;317294;-89
2023/02/16 04:08:56;;;;;;;102.77;64.17;;;;;;;;;;4402172;32;318804;-89
2023/02/16 04:14:07;;;;;;;109.07;64.57;;;;;;;;;;4395680;32;387854;-89
2023/02/16 04:16:34;;;;;;;116.03;70.20;;;;;;;;;;4399345;32;318982;-89
2023/02/16 04:19:00;;;;;;;118.23;67.20;;;;;;;;;;4413338;32;318737;-89
2023/02/16 04:21:29;;;;;;;135.90;77.17;;;;;;;;;;4413239;32;318331;-88
2023/02/16 04:23:56;;;;;;;118.87;72.93;;;;;;;;;;4397582;32;417726;-89
2023/02/16 04:26:23;;;;;;;137.43;78.37;;;;;;;;;;4407863;32;318229;-88
2023/02/16 04:28:50;;;;;;;110.37;71.67;;;;;;;;;;4396809;32;318961;-89
2023/02/16 04:31:17;;;;;;;133.43;75.30;;;;;;;;;;4406354;32;318704;-89
2023/02/16 04:33:44;;;;;;;124.67;73.87;;;;;;;;;;4395756;32;340486;-89
2023/02/16 04:36:10;;;;;;;142.90;81.57;;;;;;;;;;4407667;32;319284;-90
2023/02/16 04:38:39;;;;;;;158.30;94.23;;;;;;;;;;4396583;32;318636;-90
2023/02/16 04:41:06;;;;;;;182.53;108.63;;;;;;;;;;4409180;32;318747;-89
2023/02/16 04:43:33;;;;;;;199.77;117.07;;;;;;;;;;4408362;32;320190;-88
2023/02/16 04:45:59;;;;;;;193.70;112.77;;;;;;;;;;4420484;32;318542;-89
2023/02/16 04:48:26;;;;;;;192.63;110.37;;;;;;;;;;4418654;32;318359;-89
2023/02/16 04:50:53;;;;;;;158.10;91.80;;;;;;;;;;4405374;32;417400;-88
2023/02/16 04:53:20;;;;;;;141.53;82.37;;;;;;;;;;4406448;32;319215;-89
2023/02/16 04:55:49;;;;;;;133.80;80.03;;;;;;;;;;4395614;32;318677;-88
2023/02/16 04:58:17;;;;;;;147.30;82.77;;;;;;;;;;4406062;32;318461;-89
2023/02/16 05:00:43;;;;;;;142.77;79.70;;;;;;;;;;4396089;32;318537;-89
2023/02/16 05:03:10;;;;;;;167.97;91.77;;;;;;;;;;4406039;32;318570;-89
2023/02/16 05:05:37;;;;;;;166.43;86.83;;;;;;;;;;4395702;32;319152;-88
2023/02/16 05:08:04;;;;;;;169.63;92.17;;;;;;;;;;4405629;32;318507;-88
2023/02/16 05:10:31;;;;;;;193.53;103.13;;;;;;;;;;4394750;32;318523;-89
2023/02/16 05:15:44;;;;;;;182.67;102.23;;;;;;;;;;4396848;32;320403;-89
2023/02/16 05:18:11;;;;;;;179.37;100.53;;;;;;;;;;4407311;32;320453;-89
2023/02/16 05:23:22;;;;;;;182.93;102.13;;;;;;;;;;4406572;32;319327;-89
2023/02/16 05:25:49;;;;;;;209.77;115.43;;;;;;;;;;4396427;32;319494;-89
2023/02/16 05:28:17;;;;;;;185.43;105.67;;;;;;;;;;4406779;32;319489;-88
2023/02/16 05:30:44;;;;;;;194.17;108.97;;;;;;;;;;4395364;32;319408;-89
2023/02/16 05:33:11;;;;;;;198.77;110.70;;;;;;;;;;4405184;32;319569;-89
2023/02/16 05:35:38;;;;;;;231.23;124.80;;;;;;;;;;4396353;32;319722;-90
2023/02/16 05:38:04;;;;;;;208.80;117.27;;;;;;;;;;4406499;32;319778;-89
2023/02/16 05:40:32;;;;;;;185.43;109.30;;;;;;;;;;4396135;32;319708;-88
2023/02/16 05:42:58;;;;;;;194.47;102.83;;;;;;;;;;4405679;32;319447;-88
2023/02/16 05:45:27;;;;;;;190.00;101.20;;;;;;;;;;4405773;32;320436;-89
2023/02/16 05:47:55;;;;;;;174.50;93.53;;;;;;;;;;4392371;32;419208;-89
2023/02/16 05:50:22;;;;;;;172.70;89.13;;;;;;;;;;4406178;32;318595;-89
2023/02/16 05:52:48;;;;;;;188.97;94.10;;;;;;;;;;4405157;32;318457;-88
2023/02/16 05:55:15;;;;;;;187.10;97.67;;;;;;;;;;4419374;32;318185;-89
2023/02/16 05:57:42;;;;;;;170.33;93.83;;;;;;;;;;4408942;32;317235;-88
2023/02/16 06:00:10;;;;;;;175.90;96.87;;;;;;;;;;4408844;32;318407;-89
2023/02/16 06:02:38;;;;;;;186.00;98.83;;;;;;;;;;4395178;32;318736;-89
2023/02/16 06:05:06;;;;;;;171.83;96.50;;;;;;;;;;4406217;32;318415;-89
2023/02/16 06:07:33;;;;;;;145.80;84.93;;;;;;;;;;4391800;32;345460;-88
2023/02/16 06:10:00;;;;;;;118.27;75.30;;;;;;;;;;4405749;32;319659;-88
2023/02/16 06:12:27;;;;;;;144.47;80.03;;;;;;;;;;4403006;32;354477;-89
2023/02/16 06:14:54;;;;;;;141.90;78.93;;;;;;;;;;4392153;32;416944;-89
2023/02/16 06:17:21;;;;;;;168.43;90.80;;;;;;;;;;4405327;32;318691;-89
2023/02/16 06:19:49;;;;;;;199.83;110.60;;;;;;;;;;4393532;32;318266;-90
2023/02/16 06:22:16;;;;;;;212.27;116.20;;;;;;;;;;4408218;32;319510;-89
2023/02/16 06:24:45;;;;;;;194.67;113.63;;;;;;;;;;4395912;32;319536;-89
2023/02/16 06:27:12;;;;;;;194.53;111.07;;;;;;;;;;4404536;32;320573;-88
2023/02/16 06:29:39;;;;;;;176.63;99.43;;;;;;;;;;4395373;32;319850;-89
2023/02/16 06:32:06;;;;;;;180.53;100.97;;;;;;;;;;4391292;32;319055;-91
2023/02/16 06:34:33;;;;;;;171.27;100.03;;;;;;;;;;4395035;32;319646;-89
2023/02/16 06:37:04;;;;;;;178.23;97.63;;;;;;;;;;4405671;32;320662;-88
2023/02/16 06:39:31;;;;;;;167.70;97.67;;;;;;;;;;4393401;32;318720;-88
2023/02/16 06:41:58;;;;;;;137.80;83.10;;;;;;;;;;4405792;32;319613;-88
2023/02/16 06:44:25;;;;;;;140.10;80.33;;;;;;;;;;4406478;32;318926;-87
2023/02/16 06:46:54;;;;;;;129.73;75.07;;;;;;;;;;4395617;32;318622;-90
2023/02/16 06:49:21;;;;;;;135.70;80.63;;;;;;;;;;4405577;32;318357;-89
2023/02/16 06:51:49;;;;;;;140.30;89.00;;;;;;;;;;4396026;32;318608;-89
2023/02/16 06:54:18;;;;;;;153.23;93.43;;;;;;;;;;4407358;32;318431;-90
2023/02/16 06:56:45;;;;;;;154.20;89.90;;;;;;;;;;4398152;32;319127;-89
2023/02/16 06:59:12;;;;;;;157.83;97.47;;;;;;;;;;4406578;32;318330;-90
2023/02/16 07:01:40;;;;;;;175.13;101.57;;;;;;;;;;4406678;32;318406;-90
2023/02/16 07:04:07;;;;;;;172.20;104.60;;;;;;;;;;4416424;32;318196;-87
2023/02/16 07:06:35;;;;;;;258.83;145.57;;;;;;;;;;4407271;32;319381;-88
2023/02/16 07:09:01;;;;;;;159.27;84.80;;;;;;;;;;4414678;32;319354;-89
2023/02/16 07:11:30;;;;;;;121.80;71.50;;;;;;;;;;4403073;32;319604;-88
2023/02/16 07:13:57;;;;;;;115.23;69.20;;;;;;;;;;4409211;32;318398;-88
2023/02/16 07:16:25;;;;;;;122.73;72.77;;;;;;;;;;4404838;32;338560;-88
2023/02/16 07:18:52;;;;;;;128.07;76.43;;;;;;;;;;4394370;32;319151;-87
2023/02/16 07:21:20;;;;;;;134.40;82.37;;;;;;;;;;4403942;32;318756;-90
2023/02/16 07:23:47;;;;;;;165.33;96.00;;;;;;;;;;4396972;32;318719;-89
2023/02/16 07:26:14;;;;;;;140.87;85.60;;;;;;;;;;4407426;32;318548;-90
2023/02/16 07:28:43;;;;;;;151.40;92.73;;;;;;;;;;4397367;32;319537;-90
2023/02/16 07:31:11;;;;;;;142.00;79.97;;;;;;;;;;4401911;32;318686;-88
2023/02/16 07:33:39;;;;;;;150.10;87.73;;;;;;;;;;4404602;32;318315;-90
2023/02/16 07:36:07;;;;;;;149.13;89.63;;;;;;;;;;4406850;32;319371;-90
2023/02/16 07:38:34;;;;;;;141.13;84.77;;;;;;;;;;4400516;32;318453;-90
2023/02/16 07:41:01;;;;;;;152.30;89.50;;;;;;;;;;4407275;32;318393;-90
2023/02/16 07:43:28;;;;;;;126.77;75.77;;;;;;;;;;4400534;32;318525;-90
2023/02/16 07:45:59;;;;;;;117.73;69.83;;;;;;;;;;4406678;32;319101;-90
2023/02/16 07:48:26;;;;;;;156.77;91.43;;;;;;;;;;4406135;32;341152;-90
2023/02/16 07:50:53;;;;;;;155.53;90.63;;;;;;;;;;4392015;32;418225;-90
2023/02/16 07:53:20;;;;;;;134.63;79.37;;;;;;;;;;4404500;32;318610;-88
2023/02/16 07:55:47;;;;;;;131.80;77.20;;;;;;;;;;4394334;32;318766;-91
2023/02/16 07:58:26;;;;;;;147.63;77.60;;;;;;;;;;4405002;32;318261;-91
2023/02/16 08:00:54;;;;;;;122.70;73.63;;;;;;;;;;4396825;32;319367;-89
2023/02/16 08:03:23;;;;;;;99.77;63.67;;;;;;;;;;4403775;32;341917;-92
2023/02/16 08:05:51;;;;;;;100.60;62.07;;;;;;;;;;4396011;32;317605;-91
2023/02/16 08:08:18;;;;;;;95.17;58.53;;;;;;;;;;4417142;32;318328;-90
2023/02/16 08:10:45;;;;;;;97.27;62.20;;;;;;;;;;4408034;32;317409;-91
2023/02/16 08:13:12;;;;;;;104.57;62.97;;;;;;;;;;4418569;32;316048;-91
2023/02/16 08:15:42;;;;;;;99.63;66.10;;;;;;;;;;4408515;32;317432;-91
2023/02/16 08:18:09;;;;;;;107.73;68.40;;;;;;;;;;4416701;32;317516;-91
2023/02/16 08:20:47;;;;;;;107.27;66.57;;;;;;;;;;4403256;32;318355;-91
2023/02/16 08:23:14;;;;;;;96.47;61.93;;;;;;;;;;4404347;32;318360;-91
2023/02/16 08:25:42;;;;;;;100.60;61.03;;;;;;;;;;4393551;32;354703;-92
2023/02/16 08:28:13;;;;;;;109.73;64.77;;;;;;;;;;4405875;32;318563;-91
2023/02/16 08:30:41;;;;;;;96.87;60.37;;;;;;;;;;4394230;32;318483;-90
2023/02/16 08:36:38;;;;;;;90.60;60.27;;;;;;;;;;4395714;32;388813;-92
2023/02/16 08:39:09;;;;;;;92.13;56.13;;;;;;;;;;4397515;32;340342;-91
2023/02/16 08:41:36;;;;;;;102.17;53.37;;;;;;;;;;4406380;32;317761;-90
2023/02/16 08:44:05;;;;;;;81.77;51.27;;;;;;;;;;4388382;32;318840;-93
2023/02/16 08:46:34;;;;;;;83.53;52.97;;;;;;;;;;4403509;32;317537;-91
2023/02/16 08:49:01;;;;;;;78.33;49.53;;;;;;;;;;4399381;32;317309;-92
2023/02/16 08:51:31;;;;;;;84.87;48.47;;;;;;;;;;4409499;32;344414;-89
2023/02/16 08:54:04;;;;;;;71.00;44.63;;;;;;;;;;4389035;32;317557;-92
2023/02/16 08:56:33;;;;;;;65.97;41.23;;;;;;;;;;4407380;32;317661;-91
2023/02/16 08:59:01;;;;;;;56.17;36.67;;;;;;;;;;4396157;32;317597;-89
2023/02/16 09:01:28;;;;;;;63.40;38.07;;;;;;;;;;4404728;32;316305;-89
2023/02/16 09:03:55;;;;;;;67.77;39.97;;;;;;;;;;4397109;32;317915;-91
2023/02/16 09:06:22;;;;;;;55.47;37.40;;;;;;;;;;4407207;32;317658;-89
2023/02/16 09:08:51;;;;;;;87.77;53.70;;;;;;;;;;4404980;32;317747;-90
2023/02/16 09:11:21;;;;;;;48.27;32.87;;;;;;;;;;4385199;32;416899;-90
2023/02/16 09:13:49;;;;;;;54.53;34.43;;;;;;;;;;4404162;32;317673;-92
2023/02/16 09:16:18;;;;;;;53.57;37.70;;;;;;;;;;4391584;32;318210;-91
2023/02/16 09:18:46;;;;;;;57.50;32.67;;;;;;;;;;4401938;32;317511;-90
2023/02/16 09:21:16;;;;;;;47.80;31.17;;;;;;;;;;4391089;32;318430;-91
2023/02/16 09:23:46;;;;;;;46.33;33.37;;;;;;;;;;4383806;32;318797;-88
2023/02/16 09:26:14;;;;;;;47.23;29.93;;;;;;;;;;4384177;32;317499;-90
2023/02/16 09:28:47;;;;;;;45.70;27.90;;;;;;;;;;4396609;32;317478;-90
2023/02/16 09:31:18;;;;;;;53.50;33.83;;;;;;;;;;4392375;32;317361;-91
2023/02/16 09:33:46;;;;;;;50.27;34.67;;;;;;;;;;4403431;32;318037;-89
2023/02/16 09:36:14;;;;;;;38.50;28.10;;;;;;;;;;4393154;32;317825;-88
2023/02/16 09:38:41;;;;;;;45.63;27.27;;;;;;;;;;4398782;32;316227;-89
2023/02/16 09:41:20;;;;;;;48.07;28.70;;;;;;;;;;4388783;32;317514;-89
2023/02/16 09:43:55;;;;;;;35.57;24.70;;;;;;;;;;4397975;32;317586;-89
2023/02/16 09:46:24;;;;;;;38.07;22.97;;;;;;;;;;4378023;32;416682;-89
2023/02/16 09:48:52;;;;;;;32.33;22.40;;;;;;;;;;4390708;32;317477;-91
2023/02/16 09:51:23;;;;;;;28.80;19.87;;;;;;;;;;4383843;32;417471;-87
2023/02/16 09:53:54;;;;;;;42.63;24.33;;;;;;;;;;4403780;32;317686;-91
2023/02/16 09:56:31;;;;;;;34.77;21.20;;;;;;;;;;4378616;32;417259;-91
2023/02/16 09:59:05;;;;;;;27.53;21.03;;;;;;;;;;4381174;32;317651;-88
2023/02/16 10:01:39;;;;;;;28.63;20.10;;;;;;;;;;4391130;32;317571;-90
2023/02/16 10:04:20;;;;;;;29.70;20.07;;;;;;;;;;4380570;32;317636;-88
2023/02/16 10:07:00;;;;;;;34.60;21.83;;;;;;;;;;4390940;32;317853;-88
2023/02/16 10:09:29;;;;;;;29.87;20.70;;;;;;;;;;4377954;32;415926;-88
2023/02/16 10:12:10;;;;;;;37.40;21.97;;;;;;;;;;4379713;32;344345;-88
2023/02/16 10:14:43;;;;;;;33.43;21.63;;;;;;;;;;4392531;32;317616;-90
2023/02/16 10:17:20;;;;;;;29.97;21.00;;;;;;;;;;4381891;32;317761;-91
2023/02/16 10:19:53;;;;;;;32.60;22.83;;;;;;;;;;4392832;32;324823;-90
2023/02/16 10:22:30;;;;;;;36.50;22.83;;;;;;;;;;4379796;32;418110;-89
2023/02/16 10:25:02;;;;;;;40.73;26.47;;;;;;;;;;4382055;32;317649;-89
2023/02/16 10:27:37;;;;;;;46.37;29.53;;;;;;;;;;4393353;32;317587;-88
2023/02/16 10:30:14;;;;;;;42.07;26.40;;;;;;;;;;4381768;32;317669;-89
2023/02/16 10:33:02;;;;;;;46.83;30.47;;;;;;;;;;4393151;32;320357;-89
2023/02/16 10:35:35;;;;;;;42.17;26.90;;;;;;;;;;4383207;32;416236;-91
2023/02/16 10:38:08;;;;;;;50.27;27.33;;;;;;;;;;4381349;32;318119;-89
2023/02/16 10:40:47;;;;;;;33.93;24.20;;;;;;;;;;4392482;32;317564;-89
2023/02/16 10:43:18;;;;;;;46.07;27.57;;;;;;;;;;4381137;32;323217;-89
2023/02/16 10:45:50;;;;;;;48.20;27.37;;;;;;;;;;4392434;32;318197;-88
2023/02/16 10:48:19;;;;;;;53.80;30.47;;;;;;;;;;4381257;32;388844;-88
2023/02/16 10:50:58;;;;;;;44.80;29.00;;;;;;;;;;4397775;32;317507;-89
2023/02/16 10:53:39;;;;;;;54.23;32.47;;;;;;;;;;4385412;32;416549;-89
2023/02/16 10:56:32;;;;;;;46.33;30.90;;;;;;;;;;4385687;32;317588;-90
2023/02/16 10:59:00;;;;;;;46.03;32.67;;;;;;;;;;4385907;32;317346;-88
2023/02/16 11:01:37;;;;;;;51.97;31.40;;;;;;;;;;4393030;32;318937;-90
2023/02/16 11:04:04;;;;;;;52.57;32.47;;;;;;;;;;4387413;32;318449;-91
2023/02/16 11:06:31;;;;;;;46.60;33.87;;;;;;;;;;4394134;32;353570;-89
2023/02/16 11:08:59;;;;;;;46.27;31.77;;;;;;;;;;4385038;32;334233;-89
2023/02/16 11:11:28;;;;;;;47.73;35.30;;;;;;;;;;4399676;32;318462;-90
2023/02/16 11:14:00;;;;;;;45.83;31.80;;;;;;;;;;4388940;32;318524;-89
2023/02/16 11:16:32;;;;;;;45.70;31.97;;;;;;;;;;4396999;32;318231;-89
2023/02/16 11:19:00;;;;;;;49.57;33.07;;;;;;;;;;4388798;32;321260;-92
2023/02/16 11:21:46;;;;;;;44.77;30.97;;;;;;;;;;4392784;32;318332;-91
2023/02/16 11:24:25;;;;;;;42.47;28.77;;;;;;;;;;4390694;32;318457;-89
2023/02/16 11:27:02;;;;;;;48.30;30.87;;;;;;;;;;4394883;32;318628;-89
2023/02/16 11:29:32;;;;;;;42.00;31.17;;;;;;;;;;4382877;32;421598;-89
2023/02/16 11:32:06;;;;;;;46.13;33.10;;;;;;;;;;4384678;32;318439;-89
2023/02/16 11:34:36;;;;;;;47.30;32.93;;;;;;;;;;4397102;32;319769;-90
2023/02/16 11:37:08;;;;;;;54.30;34.50;;;;;;;;;;4384510;32;319157;-90
2023/02/16 11:39:39;;;;;;;47.27;32.57;;;;;;;;;;4395038;32;319079;-90
2023/02/16 11:42:08;;;;;;;44.50;30.47;;;;;;;;;;4385154;32;352880;-90
2023/02/16 11:44:40;;;;;;;54.77;33.50;;;;;;;;;;4395573;32;319436;-91
2023/02/16 11:47:23;;;;;;;46.97;30.40;;;;;;;;;;4386014;32;319605;-91
2023/02/16 11:50:04;;;;;;;42.77;30.57;;;;;;;;;;4409706;32;319492;-90
2023/02/16 11:52:33;;;;;;;47.00;30.27;;;;;;;;;;4397295;32;421054;-92
2023/02/16 11:55:02;;;;;;;45.37;29.83;;;;;;;;;;4403090;32;319085;-88
2023/02/16 11:57:30;;;;;;;48.47;34.30;;;;;;;;;;4414100;32;317311;-89
2023/02/16 12:00:00;;;;;;;45.40;30.50;;;;;;;;;;4405027;32;318552;-90
2023/02/16 12:03:12;;;;;;;36.87;26.47;;;;;;;;;;4405524;32;317225;-91
2023/02/16 12:06:02;;;;;;;40.53;26.73;;;;;;;;;;4399936;32;421144;-89
2023/02/16 12:08:47;;;;;;;44.53;28.37;;;;;;;;;;4404491;32;405636;-90
2023/02/16 12:11:27;;;;;;;39.30;27.63;;;;;;;;;;4407591;32;323889;-89
2023/02/16 12:14:12;;;;;;;37.07;27.33;;;;;;;;;;4403727;32;335854;-90
2023/02/16 12:16:46;;;;;;;40.70;27.10;;;;;;;;;;4410728;32;318894;-89
2023/02/16 12:19:28;;;;;;;40.13;27.57;;;;;;;;;;4398823;32;324117;-89
2023/02/16 12:22:04;;;;;;;36.63;23.63;;;;;;;;;;4393492;32;318516;-91
2023/02/16 12:24:43;;;;;;;32.90;23.27;;;;;;;;;;4403179;32;318513;-89
2023/02/16 12:27:18;;;;;;;34.40;24.27;;;;;;;;;;4392041;32;318621;-90
2023/02/16 12:29:54;;;;;;;37.00;22.93;;;;;;;;;;4408154;32;318788;-90
2023/02/16 12:32:36;;;;;;;27.07;21.43;;;;;;;;;;4387424;32;422412;-89
2023/02/16 12:35:20;;;;;;;29.63;22.17;;;;;;;;;;4394164;32;354321;-92
2023/02/16 12:37:55;;;;;;;26.37;21.37;;;;;;;;;;4406981;32;319380;-90
2023/02/16 12:40:35;;;;;;;35.43;24.17;;;;;;;;;;4396672;32;420035;-90
2023/02/16 12:43:09;;;;;;;25.67;21.03;;;;;;;;;;4398662;32;318470;-90
2023/02/16 12:45:40;;;;;;;36.77;21.93;;;;;;;;;;4407671;32;318482;-91
2023/02/16 12:48:19;;;;;;;30.00;21.03;;;;;;;;;;4397896;32;318426;-91
2023/02/16 12:50:51;;;;;;;32.47;23.10;;;;;;;;;;4403324;32;319608;-91
2023/02/16 12:53:26;;;;;;;40.80;19.83;;;;;;;;;;4396009;32;419476;-91
2023/02/16 12:55:56;;;;;;;35.23;20.53;;;;;;;;;;4400908;32;319379;-86
2023/02/16 12:58:27;;;;;;;31.53;21.87;;;;;;;;;;4407296;32;319132;-91
2023/02/16 13:00:59;;;;;;;24.40;19.13;;;;;;;;;;4399052;32;318499;-90
2023/02/16 13:03:34;;;;;;;25.77;19.40;;;;;;;;;;4409143;32;319088;-90
2023/02/16 13:06:11;;;;;;;29.30;19.30;;;;;;;;;;4396718;32;318510;-89
2023/02/16 13:08:44;;;;;;;25.80;18.90;;;;;;;;;;4406703;32;318817;-92
2023/02/16 13:11:17;;;;;;;40.23;23.73;;;;;;;;;;4396696;32;318526;-90
2023/02/16 13:13:48;;;;;;;31.43;21.87;;;;;;;;;;4408301;32;318513;-90
2023/02/16 13:16:20;;;;;;;34.60;21.77;;;;;;;;;;4398256;32;318513;-90
2023/02/16 13:18:49;;;;;;;28.97;19.60;;;;;;;;;;4405004;32;356015;-93
2023/02/16 13:21:38;;;;;;;26.87;17.70;;;;;;;;;;4397825;32;319150;-91
2023/02/16 13:24:12;;;;;;;29.97;17.63;;;;;;;;;;4397740;32;318322;-92
2023/02/16 13:26:52;;;;;;;22.07;15.97;;;;;;;;;;4408690;32;318509;-92
2023/02/16 13:29:59;;;;;;;22.47;15.17;;;;;;;;;;4393623;32;419105;-90
2023/02/16 13:32:48;;;;;;;25.53;17.23;;;;;;;;;;4394408;32;419452;-91
2023/02/16 13:35:41;;;;;;;32.23;15.33;;;;;;;;;;4397751;32;319060;-90
2023/02/16 13:38:36;;;;;;;28.53;16.87;;;;;;;;;;4396724;32;318530;-90
2023/02/16 13:41:34;;;;;;;27.80;17.30;;;;;;;;;;4396468;32;318554;-89
2023/02/16 13:44:03;;;;;;;26.73;15.20;;;;;;;;;;4379056;32;318963;-89
2023/02/16 13:46:33;;;;;;;19.93;14.33;;;;;;;;;;4406492;32;319305;-89
2023/02/16 13:49:01;;;;;;;17.47;13.60;;;;;;;;;;4397336;32;319093;-89
2023/02/16 13:51:40;;;;;;;24.37;15.07;;;;;;;;;;4407013;32;318342;-89
2023/02/16 13:54:22;;;;;;;17.97;11.77;;;;;;;;;;4397350;32;319398;-90
2023/02/16 13:56:50;;;;;;;16.47;11.63;;;;;;;;;;4406802;32;319218;-90
2023/02/16 13:59:57;;;;;;;21.63;12.50;;;;;;;;;;4395043;32;349662;-90
2023/02/16 14:02:59;;;;;;;18.13;13.83;;;;;;;;;;4393630;32;418521;-90
2023/02/16 14:05:29;;;;;;;17.43;12.30;;;;;;;;;;4390053;32;404916;-90
2023/02/16 14:08:12;;;;;;;19.60;13.07;;;;;;;;;;4399106;32;319076;-92
2023/02/16 14:11:09;;;;;;;20.17;13.10;;;;;;;;;;4408246;32;319549;-90
2023/02/16 14:13:48;;;;;;;27.87;14.30;;;;;;;;;;4381983;32;416000;-92
2023/02/16 14:16:30;;;;;;;26.07;13.30;;;;;;;;;;4396270;32;318720;-90
2023/02/16 14:18:59;;;;;;;27.37;17.93;;;;;;;;;;4394785;32;319515;-90
2023/02/16 14:21:36;;;;;;;30.13;17.00;;;;;;;;;;4406749;32;318854;-91
2023/02/16 14:24:06;;;;;;;26.67;16.47;;;;;;;;;;4398091;32;318951;-88
2023/02/16 14:26:52;;;;;;;20.80;13.83;;;;;;;;;;4406802;32;319065;-92
2023/02/16 14:29:42;;;;;;;21.23;13.03;;;;;;;;;;4393903;32;421456;-91
2023/02/16 14:32:23;;;;;;;20.23;13.00;;;;;;;;;;4398214;32;318399;-91
2023/02/16 14:34:54;;;;;;;16.30;11.80;;;;;;;;;;4407507;32;319392;-90
2023/02/16 14:37:28;;;;;;;16.43;12.20;;;;;;;;;;4394888;32;423131;-89
2023/02/16 14:40:03;;;;;;;25.67;12.87;;;;;;;;;;4398013;32;319630;-89
2023/02/16 14:42:33;;;;;;;20.83;14.50;;;;;;;;;;4409094;32;319575;-93
2023/02/16 14:45:40;;;;;;;18.90;13.03;;;;;;;;;;4397610;32;319160;-91
2023/02/16 14:48:22;;;;;;;19.67;13.77;;;;;;;;;;4396567;32;318831;-90
2023/02/16 14:51:10;;;;;;;23.97;13.73;;;;;;;;;;4411507;32;318958;-91
2023/02/16 14:54:09;;;;;;;28.43;17.40;;;;;;;;;;4395194;32;419056;-92
2023/02/16 14:56:42;;;;;;;35.90;22.00;;;;;;;;;;4394214;32;419725;-92
2023/02/16 14:59:23;;;;;;;44.67;25.63;;;;;;;;;;4395902;32;318520;-89
2023/02/16 15:01:50;;;;;;;67.27;37.97;;;;;;;;;;4404309;32;318974;-89
2023/02/16 15:04:28;;;;;;;81.70;49.57;;;;;;;;;;4390255;32;318735;-91
2023/02/16 15:06:57;;;;;;;108.80;76.87;;;;;;;;;;4391944;32;352375;-91
2023/02/16 15:09:29;;;;;;;146.43;120.37;;;;;;;;;;4405863;32;320229;-91
2023/02/16 15:14:55;;;;;;;67.93;46.57;;;;;;;;;;4385564;32;318710;-90